sensor_id;sensor_type;location;lat;lon;timestamp;temperature;humidity
2174;DHT22;1093;51.424;11.764;2023-05-16T00:01:57;13.70;1.40
2174;DHT22;1093;51.424;11.764;2023-05-16T00:04:24;13.70;1.40
2174;DHT22;1093;51.424;11.764;2023-05-16T00:06:51;13.70;1.40
2174;DHT22;1093;51.424;11.764;2023-05-16T00:09:19;13.70;1.40
2174;DHT22;1093;51.424;11.764;2023-05-16T00:11:47;13.70;1.40
2174;DHT22;1093;51.424;11.764;2023-05-16T00:14:14;13.60;1.40
2174;DHT22;1093;51.424;11.764;2023-05-16T00:16:41;13.60;1.40
2174;DHT22;1093;51.424;11.764;2023-05-16T00:19:08;13.60;1.40
2174;DHT22;1093;51.424;11.764;2023-05-16T00:21:35;13.60;1.40
2174;DHT22;1093;51.424;11.764;2023-05-16T00:24:03;13.60;1.40
2174;DHT22;1093;51.424;11.764;2023-05-16T00:26:31;13.50;1.40
2174;DHT22;1093;51.424;11.764;2023-05-16T00:28:58;13.50;1.40
2174;DHT22;1093;51.424;11.764;2023-05-16T00:31:25;13.50;1.40
2174;DHT22;1093;51.424;11.764;2023-05-16T00:33:52;13.50;1.40
2174;DHT22;1093;51.424;11.764;2023-05-16T00:36:19;13.50;1.40
2174;DHT22;1093;51.424;11.764;2023-05-16T00:38:46;13.50;1.40
2174;DHT22;1093;51.424;11.764;2023-05-16T00:41:13;13.40;1.40
2174;DHT22;1093;51.424;11.764;2023-05-16T00:43:41;13.40;1.40
2174;DHT22;1093;51.424;11.764;2023-05-16T00:46:08;13.30;1.40
2174;DHT22;1093;51.424;11.764;2023-05-16T00:48:35;13.30;1.40
2174;DHT22;1093;51.424;11.764;2023-05-16T00:51:01;13.20;1.40
2174;DHT22;1093;51.424;11.764;2023-05-16T00:53:28;13.20;1.40
2174;DHT22;1093;51.424;11.764;2023-05-16T00:55:55;13.10;1.40
2174;DHT22;1093;51.424;11.764;2023-05-16T00:58:23;13.00;1.40
2174;DHT22;1093;51.424;11.764;2023-05-16T01:00:51;13.00;1.40
2174;DHT22;1093;51.424;11.764;2023-05-16T01:03:18;13.00;1.40
2174;DHT22;1093;51.424;11.764;2023-05-16T01:05:45;13.10;1.40
2174;DHT22;1093;51.424;11.764;2023-05-16T01:08:12;13.10;1.40
2174;DHT22;1093;51.424;11.764;2023-05-16T01:10:45;13.00;1.40
2174;DHT22;1093;51.424;11.764;2023-05-16T01:13:20;12.90;1.40
2174;DHT22;1093;51.424;11.764;2023-05-16T01:15:58;12.90;1.40
2174;DHT22;1093;51.424;11.764;2023-05-16T01:18:32;12.80;1.40
2174;DHT22;1093;51.424;11.764;2023-05-16T01:21:06;12.80;1.40
2174;DHT22;1093;51.424;11.764;2023-05-16T01:23:43;12.70;1.40
2174;DHT22;1093;51.424;11.764;2023-05-16T01:26:18;12.70;1.40
2174;DHT22;1093;51.424;11.764;2023-05-16T01:28:47;12.80;1.40
2174;DHT22;1093;51.424;11.764;2023-05-16T01:31:14;12.80;1.40
2174;DHT22;1093;51.424;11.764;2023-05-16T01:33:42;12.80;1.40
2174;DHT22;1093;51.424;11.764;2023-05-16T01:36:17;12.80;1.40
2174;DHT22;1093;51.424;11.764;2023-05-16T01:38:56;12.90;1.40
2174;DHT22;1093;51.424;11.764;2023-05-16T01:41:33;12.80;1.40
2174;DHT22;1093;51.424;11.764;2023-05-16T01:44:09;12.80;1.40
2174;DHT22;1093;51.424;11.764;2023-05-16T01:46:39;12.80;1.40
2174;DHT22;1093;51.424;11.764;2023-05-16T01:49:15;12.80;1.40
2174;DHT22;1093;51.424;11.764;2023-05-16T01:51:46;12.80;1.40
2174;DHT22;1093;51.424;11.764;2023-05-16T01:54:18;12.70;1.40
2174;DHT22;1093;51.424;11.764;2023-05-16T01:56:50;12.70;1.40
2174;DHT22;1093;51.424;11.764;2023-05-16T01:59:18;12.60;1.40
2174;DHT22;1093;51.424;11.764;2023-05-16T02:01:45;12.60;1.40
2174;DHT22;1093;51.424;11.764;2023-05-16T02:04:12;12.50;1.40
2174;DHT22;1093;51.424;11.764;2023-05-16T02:06:40;12.50;1.40
2174;DHT22;1093;51.424;11.764;2023-05-16T02:09:07;12.40;1.40
2174;DHT22;1093;51.424;11.764;2023-05-16T02:11:34;12.40;1.40
2174;DHT22;1093;51.424;11.764;2023-05-16T02:14:02;12.40;1.40
2174;DHT22;1093;51.424;11.764;2023-05-16T02:16:28;12.30;1.40
2174;DHT22;1093;51.424;11.764;2023-05-16T02:18:55;12.30;1.40
2174;DHT22;1093;51.424;11.764;2023-05-16T02:21:22;12.30;1.40
2174;DHT22;1093;51.424;11.764;2023-05-16T02:23:49;12.30;1.40
2174;DHT22;1093;51.424;11.764;2023-05-16T02:26:16;12.30;1.40
2174;DHT22;1093;51.424;11.764;2023-05-16T02:28:43;12.20;1.40
2174;DHT22;1093;51.424;11.764;2023-05-16T02:31:11;12.10;1.40
2174;DHT22;1093;51.424;11.764;2023-05-16T02:33:38;12.10;1.40
2174;DHT22;1093;51.424;11.764;2023-05-16T02:36:06;12.00;1.40
2174;DHT22;1093;51.424;11.764;2023-05-16T02:38:32;12.10;1.40
2174;DHT22;1093;51.424;11.764;2023-05-16T02:40:59;12.00;1.40
2174;DHT22;1093;51.424;11.764;2023-05-16T02:43:26;11.90;1.40
2174;DHT22;1093;51.424;11.764;2023-05-16T02:45:53;11.90;1.40
2174;DHT22;1093;51.424;11.764;2023-05-16T02:48:21;11.80;1.40
2174;DHT22;1093;51.424;11.764;2023-05-16T02:50:47;11.80;1.40
2174;DHT22;1093;51.424;11.764;2023-05-16T02:53:14;11.90;1.40
2174;DHT22;1093;51.424;11.764;2023-05-16T02:55:41;11.80;1.40
2174;DHT22;1093;51.424;11.764;2023-05-16T02:58:08;11.80;1.40
2174;DHT22;1093;51.424;11.764;2023-05-16T03:00:35;11.70;1.40
2174;DHT22;1093;51.424;11.764;2023-05-16T03:03:02;11.80;1.40
2174;DHT22;1093;51.424;11.764;2023-05-16T03:05:30;11.70;1.40
2174;DHT22;1093;51.424;11.764;2023-05-16T03:07:57;11.70;1.40
2174;DHT22;1093;51.424;11.764;2023-05-16T03:10:23;11.70;1.40
2174;DHT22;1093;51.424;11.764;2023-05-16T03:12:50;11.60;1.40
2174;DHT22;1093;51.424;11.764;2023-05-16T03:15:17;11.60;1.40
2174;DHT22;1093;51.424;11.764;2023-05-16T03:17:44;11.60;1.40
2174;DHT22;1093;51.424;11.764;2023-05-16T03:20:11;11.60;1.40
2174;DHT22;1093;51.424;11.764;2023-05-16T03:22:39;11.50;1.40
2174;DHT22;1093;51.424;11.764;2023-05-16T03:25:06;11.50;1.40
2174;DHT22;1093;51.424;11.764;2023-05-16T03:27:33;11.50;1.40
2174;DHT22;1093;51.424;11.764;2023-05-16T03:30:00;11.50;1.40
2174;DHT22;1093;51.424;11.764;2023-05-16T03:32:27;11.30;1.40
2174;DHT22;1093;51.424;11.764;2023-05-16T03:34:54;11.30;1.40
2174;DHT22;1093;51.424;11.764;2023-05-16T03:37:21;11.30;1.40
2174;DHT22;1093;51.424;11.764;2023-05-16T03:39:49;11.30;1.40
2174;DHT22;1093;51.424;11.764;2023-05-16T03:42:16;11.30;1.40
2174;DHT22;1093;51.424;11.764;2023-05-16T03:44:42;11.20;1.40
2174;DHT22;1093;51.424;11.764;2023-05-16T03:47:09;11.20;1.40
2174;DHT22;1093;51.424;11.764;2023-05-16T03:49:36;11.20;1.40
2174;DHT22;1093;51.424;11.764;2023-05-16T03:52:03;11.20;1.40
2174;DHT22;1093;51.424;11.764;2023-05-16T03:54:30;11.30;1.40
2174;DHT22;1093;51.424;11.764;2023-05-16T03:56:58;11.20;1.40
2174;DHT22;1093;51.424;11.764;2023-05-16T03:59:25;11.20;1.40
2174;DHT22;1093;51.424;11.764;2023-05-16T04:01:51;11.20;1.40
2174;DHT22;1093;51.424;11.764;2023-05-16T04:04:18;11.20;1.40
2174;DHT22;1093;51.424;11.764;2023-05-16T04:06:45;11.20;1.40
2174;DHT22;1093;51.424;11.764;2023-05-16T04:09:12;11.20;1.40
2174;DHT22;1093;51.424;11.764;2023-05-16T04:11:39;11.20;1.40
2174;DHT22;1093;51.424;11.764;2023-05-16T04:14:07;11.20;1.40
2174;DHT22;1093;51.424;11.764;2023-05-16T04:16:33;11.20;1.40
2174;DHT22;1093;51.424;11.764;2023-05-16T04:19:00;11.30;1.40
2174;DHT22;1093;51.424;11.764;2023-05-16T04:21:28;11.20;1.40
2174;DHT22;1093;51.424;11.764;2023-05-16T04:23:55;11.30;1.40
2174;DHT22;1093;51.424;11.764;2023-05-16T04:26:22;11.30;1.40
2174;DHT22;1093;51.424;11.764;2023-05-16T04:28:49;11.30;1.40
2174;DHT22;1093;51.424;11.764;2023-05-16T04:31:17;11.30;1.40
2174;DHT22;1093;51.424;11.764;2023-05-16T04:33:44;11.30;1.40
2174;DHT22;1093;51.424;11.764;2023-05-16T04:36:11;11.30;1.40
2174;DHT22;1093;51.424;11.764;2023-05-16T04:38:37;11.30;1.40
2174;DHT22;1093;51.424;11.764;2023-05-16T04:41:04;11.20;1.40
2174;DHT22;1093;51.424;11.764;2023-05-16T04:43:33;11.30;1.40
2174;DHT22;1093;51.424;11.764;2023-05-16T04:46:00;11.20;1.40
2174;DHT22;1093;51.424;11.764;2023-05-16T04:48:28;11.30;1.40
2174;DHT22;1093;51.424;11.764;2023-05-16T04:50:55;11.30;1.40
2174;DHT22;1093;51.424;11.764;2023-05-16T04:53:22;11.40;1.40
2174;DHT22;1093;51.424;11.764;2023-05-16T04:55:48;11.40;1.40
2174;DHT22;1093;51.424;11.764;2023-05-16T04:58:15;11.40;1.40
2174;DHT22;1093;51.424;11.764;2023-05-16T05:00:42;11.40;1.40
2174;DHT22;1093;51.424;11.764;2023-05-16T05:03:08;11.40;1.40
2174;DHT22;1093;51.424;11.764;2023-05-16T05:05:36;11.40;1.40
2174;DHT22;1093;51.424;11.764;2023-05-16T05:08:04;11.40;1.40
2174;DHT22;1093;51.424;11.764;2023-05-16T05:10:30;11.50;1.40
2174;DHT22;1093;51.424;11.764;2023-05-16T05:12:57;11.50;1.40
2174;DHT22;1093;51.424;11.764;2023-05-16T05:15:24;11.50;1.40
2174;DHT22;1093;51.424;11.764;2023-05-16T05:17:51;11.50;1.40
2174;DHT22;1093;51.424;11.764;2023-05-16T05:20:17;11.50;1.40
2174;DHT22;1093;51.424;11.764;2023-05-16T05:22:46;11.60;1.40
2174;DHT22;1093;51.424;11.764;2023-05-16T05:25:13;11.60;1.40
2174;DHT22;1093;51.424;11.764;2023-05-16T05:27:40;11.70;1.40
2174;DHT22;1093;51.424;11.764;2023-05-16T05:30:07;11.70;1.40
2174;DHT22;1093;51.424;11.764;2023-05-16T05:32:34;11.80;1.40
2174;DHT22;1093;51.424;11.764;2023-05-16T05:35:01;11.80;1.40
2174;DHT22;1093;51.424;11.764;2023-05-16T05:37:28;11.90;1.40
2174;DHT22;1093;51.424;11.764;2023-05-16T05:39:56;11.90;1.40
2174;DHT22;1093;51.424;11.764;2023-05-16T05:42:23;12.00;1.40
2174;DHT22;1093;51.424;11.764;2023-05-16T05:44:50;11.90;1.40
2174;DHT22;1093;51.424;11.764;2023-05-16T05:47:17;12.00;1.40
2174;DHT22;1093;51.424;11.764;2023-05-16T05:49:43;12.00;1.40
2174;DHT22;1093;51.424;11.764;2023-05-16T05:52:10;12.00;1.40
2174;DHT22;1093;51.424;11.764;2023-05-16T05:54:37;12.00;1.40
2174;DHT22;1093;51.424;11.764;2023-05-16T05:57:06;12.00;1.40
2174;DHT22;1093;51.424;11.764;2023-05-16T05:59:32;12.00;1.40
2174;DHT22;1093;51.424;11.764;2023-05-16T06:01:59;12.10;1.40
2174;DHT22;1093;51.424;11.764;2023-05-16T06:04:26;12.10;1.40
2174;DHT22;1093;51.424;11.764;2023-05-16T06:06:53;12.10;1.40
2174;DHT22;1093;51.424;11.764;2023-05-16T06:09:20;12.10;1.40
2174;DHT22;1093;51.424;11.764;2023-05-16T06:11:47;12.10;1.40
2174;DHT22;1093;51.424;11.764;2023-05-16T06:14:15;12.20;1.40
2174;DHT22;1093;51.424;11.764;2023-05-16T06:16:41;12.20;1.40
2174;DHT22;1093;51.424;11.764;2023-05-16T06:19:08;12.20;1.40
2174;DHT22;1093;51.424;11.764;2023-05-16T06:21:36;12.20;1.40
2174;DHT22;1093;51.424;11.764;2023-05-16T06:24:04;12.20;1.40
2174;DHT22;1093;51.424;11.764;2023-05-16T06:26:32;12.30;1.40
2174;DHT22;1093;51.424;11.764;2023-05-16T06:28:58;12.30;1.40
2174;DHT22;1093;51.424;11.764;2023-05-16T06:31:27;12.30;1.40
2174;DHT22;1093;51.424;11.764;2023-05-16T06:33:54;12.30;1.40
2174;DHT22;1093;51.424;11.764;2023-05-16T06:36:21;12.40;1.40
2174;DHT22;1093;51.424;11.764;2023-05-16T06:38:48;12.40;1.40
2174;DHT22;1093;51.424;11.764;2023-05-16T06:41:15;12.50;1.40
2174;DHT22;1093;51.424;11.764;2023-05-16T06:43:42;12.50;1.40
2174;DHT22;1093;51.424;11.764;2023-05-16T06:46:08;12.50;1.40
2174;DHT22;1093;51.424;11.764;2023-05-16T06:48:37;12.50;1.40
2174;DHT22;1093;51.424;11.764;2023-05-16T06:51:04;12.50;1.40
2174;DHT22;1093;51.424;11.764;2023-05-16T06:53:30;12.50;1.40
2174;DHT22;1093;51.424;11.764;2023-05-16T06:55:57;12.60;1.40
2174;DHT22;1093;51.424;11.764;2023-05-16T06:58:24;12.60;1.40
2174;DHT22;1093;51.424;11.764;2023-05-16T07:00:52;12.60;1.40
2174;DHT22;1093;51.424;11.764;2023-05-16T07:03:18;12.70;1.40
2174;DHT22;1093;51.424;11.764;2023-05-16T07:05:47;12.70;1.40
2174;DHT22;1093;51.424;11.764;2023-05-16T07:08:16;12.80;1.40
2174;DHT22;1093;51.424;11.764;2023-05-16T07:10:42;12.80;1.40
2174;DHT22;1093;51.424;11.764;2023-05-16T07:13:09;12.90;1.40
2174;DHT22;1093;51.424;11.764;2023-05-16T07:15:36;12.90;1.40
2174;DHT22;1093;51.424;11.764;2023-05-16T07:18:03;13.00;1.40
2174;DHT22;1093;51.424;11.764;2023-05-16T07:20:30;13.00;1.40
2174;DHT22;1093;51.424;11.764;2023-05-16T07:22:58;13.00;1.40
2174;DHT22;1093;51.424;11.764;2023-05-16T07:25:25;13.00;1.40
2174;DHT22;1093;51.424;11.764;2023-05-16T07:27:53;13.10;1.40
2174;DHT22;1093;51.424;11.764;2023-05-16T07:30:20;13.20;1.40
2174;DHT22;1093;51.424;11.764;2023-05-16T07:32:47;13.20;1.40
2174;DHT22;1093;51.424;11.764;2023-05-16T07:35:13;13.20;1.40
2174;DHT22;1093;51.424;11.764;2023-05-16T07:37:40;13.20;1.40
2174;DHT22;1093;51.424;11.764;2023-05-16T07:40:10;13.20;1.40
2174;DHT22;1093;51.424;11.764;2023-05-16T07:42:37;13.30;1.40
2174;DHT22;1093;51.424;11.764;2023-05-16T07:45:04;13.30;1.40
2174;DHT22;1093;51.424;11.764;2023-05-16T07:47:32;13.40;1.40
2174;DHT22;1093;51.424;11.764;2023-05-16T07:49:59;13.30;1.40
2174;DHT22;1093;51.424;11.764;2023-05-16T07:52:26;13.30;1.40
2174;DHT22;1093;51.424;11.764;2023-05-16T07:54:53;13.30;1.40
2174;DHT22;1093;51.424;11.764;2023-05-16T07:57:21;13.20;1.40
2174;DHT22;1093;51.424;11.764;2023-05-16T07:59:49;13.30;1.40
2174;DHT22;1093;51.424;11.764;2023-05-16T08:02:16;13.30;1.40
2174;DHT22;1093;51.424;11.764;2023-05-16T08:04:43;13.30;1.40
2174;DHT22;1093;51.424;11.764;2023-05-16T08:07:10;13.40;1.40
2174;DHT22;1093;51.424;11.764;2023-05-16T08:09:37;13.40;1.40
2174;DHT22;1093;51.424;11.764;2023-05-16T08:12:04;13.40;1.40
2174;DHT22;1093;51.424;11.764;2023-05-16T08:14:33;13.40;1.40
2174;DHT22;1093;51.424;11.764;2023-05-16T08:17:01;13.40;1.40
2174;DHT22;1093;51.424;11.764;2023-05-16T08:19:28;13.40;1.40
2174;DHT22;1093;51.424;11.764;2023-05-16T08:21:55;13.50;1.40
2174;DHT22;1093;51.424;11.764;2023-05-16T08:24:21;13.50;1.40
2174;DHT22;1093;51.424;11.764;2023-05-16T08:26:49;13.50;1.40
2174;DHT22;1093;51.424;11.764;2023-05-16T08:29:16;13.60;1.40
2174;DHT22;1093;51.424;11.764;2023-05-16T08:31:44;13.60;1.40
2174;DHT22;1093;51.424;11.764;2023-05-16T08:34:11;13.60;1.40
2174;DHT22;1093;51.424;11.764;2023-05-16T08:36:37;13.70;1.40
2174;DHT22;1093;51.424;11.764;2023-05-16T08:39:04;13.70;1.40
2174;DHT22;1093;51.424;11.764;2023-05-16T08:41:32;13.70;1.40
2174;DHT22;1093;51.424;11.764;2023-05-16T08:43:59;13.80;1.40
2174;DHT22;1093;51.424;11.764;2023-05-16T08:46:27;13.70;1.40
2174;DHT22;1093;51.424;11.764;2023-05-16T08:48:58;13.80;1.40
2174;DHT22;1093;51.424;11.764;2023-05-16T08:51:26;13.70;1.40
2174;DHT22;1093;51.424;11.764;2023-05-16T08:53:58;13.80;1.40
2174;DHT22;1093;51.424;11.764;2023-05-16T08:56:26;13.90;1.40
2174;DHT22;1093;51.424;11.764;2023-05-16T08:58:53;13.90;1.40
2174;DHT22;1093;51.424;11.764;2023-05-16T09:01:20;13.90;1.40
2174;DHT22;1093;51.424;11.764;2023-05-16T09:03:48;13.90;1.40
2174;DHT22;1093;51.424;11.764;2023-05-16T09:06:16;14.00;1.40
2174;DHT22;1093;51.424;11.764;2023-05-16T09:08:43;14.00;1.40
2174;DHT22;1093;51.424;11.764;2023-05-16T09:11:10;13.90;1.40
2174;DHT22;1093;51.424;11.764;2023-05-16T09:13:38;13.90;1.40
2174;DHT22;1093;51.424;11.764;2023-05-16T09:16:09;13.90;1.40
2174;DHT22;1093;51.424;11.764;2023-05-16T09:18:36;13.90;1.40
2174;DHT22;1093;51.424;11.764;2023-05-16T09:21:04;13.90;1.40
2174;DHT22;1093;51.424;11.764;2023-05-16T09:23:32;13.80;1.40
2174;DHT22;1093;51.424;11.764;2023-05-16T09:25:59;13.80;1.40
2174;DHT22;1093;51.424;11.764;2023-05-16T09:28:25;13.80;1.40
2174;DHT22;1093;51.424;11.764;2023-05-16T09:30:53;13.80;1.40
2174;DHT22;1093;51.424;11.764;2023-05-16T09:33:21;13.80;1.40
2174;DHT22;1093;51.424;11.764;2023-05-16T09:35:54;13.80;1.40
2174;DHT22;1093;51.424;11.764;2023-05-16T09:38:21;13.90;1.40
2174;DHT22;1093;51.424;11.764;2023-05-16T09:40:49;14.00;1.40
2174;DHT22;1093;51.424;11.764;2023-05-16T09:43:17;14.10;1.40
2174;DHT22;1093;51.424;11.764;2023-05-16T09:45:45;14.20;1.40
2174;DHT22;1093;51.424;11.764;2023-05-16T09:48:14;14.20;1.40
2174;DHT22;1093;51.424;11.764;2023-05-16T09:50:46;14.30;1.40
2174;DHT22;1093;51.424;11.764;2023-05-16T09:53:14;14.40;1.40
2174;DHT22;1093;51.424;11.764;2023-05-16T09:55:41;14.40;1.40
2174;DHT22;1093;51.424;11.764;2023-05-16T09:58:09;14.50;1.40
2174;DHT22;1093;51.424;11.764;2023-05-16T10:00:36;14.50;1.40
2174;DHT22;1093;51.424;11.764;2023-05-16T10:03:05;14.50;1.40
2174;DHT22;1093;51.424;11.764;2023-05-16T10:05:33;14.60;1.40
2174;DHT22;1093;51.424;11.764;2023-05-16T10:08:02;14.70;1.40
2174;DHT22;1093;51.424;11.764;2023-05-16T10:10:29;14.70;1.40
2174;DHT22;1093;51.424;11.764;2023-05-16T10:12:57;14.80;1.40
2174;DHT22;1093;51.424;11.764;2023-05-16T10:15:27;14.90;1.40
2174;DHT22;1093;51.424;11.764;2023-05-16T10:17:55;14.90;1.40
2174;DHT22;1093;51.424;11.764;2023-05-16T10:20:24;15.00;1.40
2174;DHT22;1093;51.424;11.764;2023-05-16T10:22:54;15.10;1.40
2174;DHT22;1093;51.424;11.764;2023-05-16T10:25:25;15.20;1.40
2174;DHT22;1093;51.424;11.764;2023-05-16T10:27:53;15.30;1.40
2174;DHT22;1093;51.424;11.764;2023-05-16T10:30:22;15.30;1.40
2174;DHT22;1093;51.424;11.764;2023-05-16T10:32:51;15.40;1.40
2174;DHT22;1093;51.424;11.764;2023-05-16T10:35:19;15.40;1.40
2174;DHT22;1093;51.424;11.764;2023-05-16T10:37:47;15.50;1.40
2174;DHT22;1093;51.424;11.764;2023-05-16T10:40:14;15.60;1.40
2174;DHT22;1093;51.424;11.764;2023-05-16T10:42:43;15.70;1.40
2174;DHT22;1093;51.424;11.764;2023-05-16T10:45:20;15.80;1.40
2174;DHT22;1093;51.424;11.764;2023-05-16T10:47:53;15.90;1.40
2174;DHT22;1093;51.424;11.764;2023-05-16T10:50:37;16.00;1.40
2174;DHT22;1093;51.424;11.764;2023-05-16T10:53:18;16.00;1.40
2174;DHT22;1093;51.424;11.764;2023-05-16T10:55:50;16.00;1.40
2174;DHT22;1093;51.424;11.764;2023-05-16T10:58:46;16.00;1.40
2174;DHT22;1093;51.424;11.764;2023-05-16T11:01:21;16.00;1.40
2174;DHT22;1093;51.424;11.764;2023-05-16T11:04:09;15.90;1.40
2174;DHT22;1093;51.424;11.764;2023-05-16T11:06:49;15.80;1.40
2174;DHT22;1093;51.424;11.764;2023-05-16T11:09:19;15.80;1.40
2174;DHT22;1093;51.424;11.764;2023-05-16T11:11:52;15.80;1.40
2174;DHT22;1093;51.424;11.764;2023-05-16T11:14:20;15.80;1.40
2174;DHT22;1093;51.424;11.764;2023-05-16T11:16:49;15.80;1.40
2174;DHT22;1093;51.424;11.764;2023-05-16T11:19:33;15.80;1.40
2174;DHT22;1093;51.424;11.764;2023-05-16T11:22:10;15.90;1.40
2174;DHT22;1093;51.424;11.764;2023-05-16T11:24:48;16.00;1.40
2174;DHT22;1093;51.424;11.764;2023-05-16T11:27:20;16.00;1.40
2174;DHT22;1093;51.424;11.764;2023-05-16T11:29:48;16.20;1.40
2174;DHT22;1093;51.424;11.764;2023-05-16T11:32:18;16.30;1.40
2174;DHT22;1093;51.424;11.764;2023-05-16T11:34:46;16.40;1.40
2174;DHT22;1093;51.424;11.764;2023-05-16T11:37:13;16.50;1.40
2174;DHT22;1093;51.424;11.764;2023-05-16T11:39:40;16.50;1.40
2174;DHT22;1093;51.424;11.764;2023-05-16T11:42:07;16.50;1.40
2174;DHT22;1093;51.424;11.764;2023-05-16T11:44:35;16.60;1.40
2174;DHT22;1093;51.424;11.764;2023-05-16T11:47:02;16.60;1.40
2174;DHT22;1093;51.424;11.764;2023-05-16T11:49:29;16.70;1.40
2174;DHT22;1093;51.424;11.764;2023-05-16T11:51:57;16.70;1.40
2174;DHT22;1093;51.424;11.764;2023-05-16T11:54:24;16.70;1.40
2174;DHT22;1093;51.424;11.764;2023-05-16T11:56:51;16.70;1.40
2174;DHT22;1093;51.424;11.764;2023-05-16T11:59:18;16.90;1.40
2174;DHT22;1093;51.424;11.764;2023-05-16T12:01:46;17.00;1.40
2174;DHT22;1093;51.424;11.764;2023-05-16T12:04:15;17.10;1.40
2174;DHT22;1093;51.424;11.764;2023-05-16T12:06:42;17.20;1.40
2174;DHT22;1093;51.424;11.764;2023-05-16T12:09:13;17.20;1.40
2174;DHT22;1093;51.424;11.764;2023-05-16T12:11:41;17.40;1.40
2174;DHT22;1093;51.424;11.764;2023-05-16T12:14:11;17.50;1.40
2174;DHT22;1093;51.424;11.764;2023-05-16T12:16:39;17.60;1.40
2174;DHT22;1093;51.424;11.764;2023-05-16T12:19:07;17.80;1.40
2174;DHT22;1093;51.424;11.764;2023-05-16T12:21:34;17.90;1.40
2174;DHT22;1093;51.424;11.764;2023-05-16T12:24:01;18.00;1.40
2174;DHT22;1093;51.424;11.764;2023-05-16T12:26:31;18.00;1.40
2174;DHT22;1093;51.424;11.764;2023-05-16T12:28:58;18.10;1.40
2174;DHT22;1093;51.424;11.764;2023-05-16T12:31:27;18.10;1.40
2174;DHT22;1093;51.424;11.764;2023-05-16T12:33:55;18.10;1.40
2174;DHT22;1093;51.424;11.764;2023-05-16T12:36:22;18.10;1.40
2174;DHT22;1093;51.424;11.764;2023-05-16T12:38:51;18.10;1.40
2174;DHT22;1093;51.424;11.764;2023-05-16T12:41:18;18.10;1.40
2174;DHT22;1093;51.424;11.764;2023-05-16T12:43:47;18.20;1.40
2174;DHT22;1093;51.424;11.764;2023-05-16T12:46:14;18.20;1.40
2174;DHT22;1093;51.424;11.764;2023-05-16T12:48:42;18.20;1.40
2174;DHT22;1093;51.424;11.764;2023-05-16T12:51:12;18.10;1.40
2174;DHT22;1093;51.424;11.764;2023-05-16T12:53:43;18.30;1.40
2174;DHT22;1093;51.424;11.764;2023-05-16T12:56:11;18.40;1.40
2174;DHT22;1093;51.424;11.764;2023-05-16T12:58:38;18.50;1.40
2174;DHT22;1093;51.424;11.764;2023-05-16T13:01:07;18.50;1.40
2174;DHT22;1093;51.424;11.764;2023-05-16T13:03:34;18.60;1.40
2174;DHT22;1093;51.424;11.764;2023-05-16T13:06:02;18.70;1.40
2174;DHT22;1093;51.424;11.764;2023-05-16T13:08:31;18.80;1.40
2174;DHT22;1093;51.424;11.764;2023-05-16T13:10:59;18.80;1.40
2174;DHT22;1093;51.424;11.764;2023-05-16T13:13:26;18.90;1.40
2174;DHT22;1093;51.424;11.764;2023-05-16T13:15:55;19.00;1.40
2174;DHT22;1093;51.424;11.764;2023-05-16T13:18:23;19.00;1.40
2174;DHT22;1093;51.424;11.764;2023-05-16T13:20:50;19.00;1.40
2174;DHT22;1093;51.424;11.764;2023-05-16T13:23:17;19.10;1.40
2174;DHT22;1093;51.424;11.764;2023-05-16T13:25:44;19.20;1.40
2174;DHT22;1093;51.424;11.764;2023-05-16T13:28:11;19.30;1.40
2174;DHT22;1093;51.424;11.764;2023-05-16T13:30:38;19.30;1.40
2174;DHT22;1093;51.424;11.764;2023-05-16T13:33:04;19.40;1.40
2174;DHT22;1093;51.424;11.764;2023-05-16T13:35:32;19.40;1.40
2174;DHT22;1093;51.424;11.764;2023-05-16T13:37:59;19.40;1.40
2174;DHT22;1093;51.424;11.764;2023-05-16T13:40:26;19.40;1.40
2174;DHT22;1093;51.424;11.764;2023-05-16T13:42:53;19.50;1.40
2174;DHT22;1093;51.424;11.764;2023-05-16T13:45:21;19.60;1.40
2174;DHT22;1093;51.424;11.764;2023-05-16T13:47:47;19.60;1.40
2174;DHT22;1093;51.424;11.764;2023-05-16T13:50:14;19.50;1.40
2174;DHT22;1093;51.424;11.764;2023-05-16T13:52:42;19.60;1.40
2174;DHT22;1093;51.424;11.764;2023-05-16T13:55:09;19.60;1.40
2174;DHT22;1093;51.424;11.764;2023-05-16T13:57:36;19.70;1.40
2174;DHT22;1093;51.424;11.764;2023-05-16T14:00:05;19.60;1.40
2174;DHT22;1093;51.424;11.764;2023-05-16T14:02:37;19.50;1.40
2174;DHT22;1093;51.424;11.764;2023-05-16T14:05:05;19.60;1.40
2174;DHT22;1093;51.424;11.764;2023-05-16T14:07:33;19.80;1.40
2174;DHT22;1093;51.424;11.764;2023-05-16T14:10:01;19.80;1.40
2174;DHT22;1093;51.424;11.764;2023-05-16T14:12:28;19.80;1.40
2174;DHT22;1093;51.424;11.764;2023-05-16T14:14:55;19.80;1.40
2174;DHT22;1093;51.424;11.764;2023-05-16T14:17:23;19.80;1.40
2174;DHT22;1093;51.424;11.764;2023-05-16T14:19:51;19.90;1.40
2174;DHT22;1093;51.424;11.764;2023-05-16T14:22:18;20.00;1.40
2174;DHT22;1093;51.424;11.764;2023-05-16T14:24:45;20.10;1.40
2174;DHT22;1093;51.424;11.764;2023-05-16T14:27:13;20.20;1.40
2174;DHT22;1093;51.424;11.764;2023-05-16T14:29:41;20.10;1.40
2174;DHT22;1093;51.424;11.764;2023-05-16T14:32:09;20.20;1.40
2174;DHT22;1093;51.424;11.764;2023-05-16T14:34:36;20.20;1.40
2174;DHT22;1093;51.424;11.764;2023-05-16T14:37:03;20.10;1.40
2174;DHT22;1093;51.424;11.764;2023-05-16T14:39:30;20.20;1.40
2174;DHT22;1093;51.424;11.764;2023-05-16T14:41:56;20.20;1.40
2174;DHT22;1093;51.424;11.764;2023-05-16T14:44:25;20.40;1.40
2174;DHT22;1093;51.424;11.764;2023-05-16T14:46:51;20.40;1.40
2174;DHT22;1093;51.424;11.764;2023-05-16T14:49:19;20.30;1.40
2174;DHT22;1093;51.424;11.764;2023-05-16T14:51:47;20.30;1.40
2174;DHT22;1093;51.424;11.764;2023-05-16T14:54:16;20.20;1.40
2174;DHT22;1093;51.424;11.764;2023-05-16T14:56:43;20.20;1.40
2174;DHT22;1093;51.424;11.764;2023-05-16T14:59:10;20.20;1.40
2174;DHT22;1093;51.424;11.764;2023-05-16T15:01:40;20.20;1.40
2174;DHT22;1093;51.424;11.764;2023-05-16T15:04:06;20.20;1.40
2174;DHT22;1093;51.424;11.764;2023-05-16T15:06:33;20.30;1.40
2174;DHT22;1093;51.424;11.764;2023-05-16T15:09:00;20.20;1.40
2174;DHT22;1093;51.424;11.764;2023-05-16T15:11:28;20.10;1.40
2174;DHT22;1093;51.424;11.764;2023-05-16T15:13:56;20.10;1.40
2174;DHT22;1093;51.424;11.764;2023-05-16T15:16:22;20.10;1.40
2174;DHT22;1093;51.424;11.764;2023-05-16T15:18:50;20.20;1.40
2174;DHT22;1093;51.424;11.764;2023-05-16T15:21:17;20.20;1.40
2174;DHT22;1093;51.424;11.764;2023-05-16T15:23:44;20.20;1.40
2174;DHT22;1093;51.424;11.764;2023-05-16T15:26:11;20.10;1.40
2174;DHT22;1093;51.424;11.764;2023-05-16T15:28:39;20.20;1.40
2174;DHT22;1093;51.424;11.764;2023-05-16T15:31:06;20.10;1.40
2174;DHT22;1093;51.424;11.764;2023-05-16T15:33:33;20.20;1.40
2174;DHT22;1093;51.424;11.764;2023-05-16T15:36:01;20.20;1.40
2174;DHT22;1093;51.424;11.764;2023-05-16T15:38:28;20.10;1.40
2174;DHT22;1093;51.424;11.764;2023-05-16T15:40:55;20.10;1.40
2174;DHT22;1093;51.424;11.764;2023-05-16T15:43:21;20.20;1.40
2174;DHT22;1093;51.424;11.764;2023-05-16T15:45:48;20.30;1.40
2174;DHT22;1093;51.424;11.764;2023-05-16T15:48:15;20.30;1.40
2174;DHT22;1093;51.424;11.764;2023-05-16T15:50:42;20.10;1.40
2174;DHT22;1093;51.424;11.764;2023-05-16T15:53:10;20.10;1.40
2174;DHT22;1093;51.424;11.764;2023-05-16T15:55:36;20.10;1.40
2174;DHT22;1093;51.424;11.764;2023-05-16T15:58:03;20.20;1.40
2174;DHT22;1093;51.424;11.764;2023-05-16T16:00:30;20.20;1.40
2174;DHT22;1093;51.424;11.764;2023-05-16T16:02:57;20.20;1.40
2174;DHT22;1093;51.424;11.764;2023-05-16T16:05:24;20.10;1.40
2174;DHT22;1093;51.424;11.764;2023-05-16T16:07:50;20.20;1.40